Time;durP1;ratioP1;P1;durP2;ratioP2;P2;SDS_P1;SDS_P2;PMS_P1;PMS_P2;Temp;Humidity;BMP_temperature;BMP_pressure;BME280_temperature;BME280_humidity;BME280_pressure;Samples;Min_cycle;Max_cycle;Signal;HPM_P1;HPM_P2
2022/09/24 00:00:54;;;;;;;7.35;2.03;;;16.50;99.90;;;;;;5057948;28;20045;-75
2022/09/24 00:03:23;;;;;;;6.18;2.00;;;16.60;99.90;;;;;;5057614;28;20036;-76
2022/09/24 00:05:49;;;;;;;5.43;1.70;;;16.60;99.90;;;;;;5053892;28;20025;-76
2022/09/24 00:08:16;;;;;;;4.07;1.25;;;16.60;99.90;;;;;;5057026;28;20087;-76
2022/09/24 00:10:44;;;;;;;5.07;1.17;;;16.50;99.90;;;;;;5062594;28;20044;-76
2022/09/24 00:13:13;;;;;;;2.58;1.00;;;16.60;99.90;;;;;;5063447;28;20121;-77
2022/09/24 00:15:44;;;;;;;3.60;1.27;;;16.40;99.90;;;;;;5059376;28;20098;-75
2022/09/24 00:18:10;;;;;;;3.10;1.10;;;16.40;99.90;;;;;;5058362;28;20102;-76
2022/09/24 00:20:37;;;;;;;3.60;1.17;;;16.40;99.90;;;;;;5058223;28;20037;-75
2022/09/24 00:23:04;;;;;;;4.50;1.20;;;16.40;99.90;;;;;;5058399;28;20033;-75
2022/09/24 00:28:15;;;;;;;3.30;1.00;;;16.40;99.90;;;;;;5056204;28;20040;-74
2022/09/24 00:30:42;;;;;;;2.72;0.88;;;16.40;99.90;;;;;;5057944;28;20033;-74
2022/09/24 00:33:09;;;;;;;3.38;1.10;;;16.40;99.90;;;;;;5069634;28;20732;-75
2022/09/24 00:35:36;;;;;;;3.72;1.00;;;16.40;99.90;;;;;;5062674;28;20028;-75
2022/09/24 00:38:04;;;;;;;3.25;1.10;;;16.40;99.90;;;;;;5056385;28;20055;-75
2022/09/24 00:40:32;;;;;;;3.67;0.93;;;16.50;99.90;;;;;;5049024;28;20029;-75
2022/09/24 00:42:58;;;;;;;3.15;1.02;;;16.40;99.90;;;;;;5058130;28;20416;-75
2022/09/24 00:45:26;;;;;;;3.25;0.98;;;16.40;99.90;;;;;;5057437;28;20412;-75
2022/09/24 00:47:53;;;;;;;4.78;1.27;;;16.50;99.90;;;;;;5058227;28;20091;-75
2022/09/24 00:50:23;;;;;;;3.40;1.15;;;16.50;99.90;;;;;;5070015;28;20060;-75
2022/09/24 00:52:59;;;;;;;5.20;1.30;;;16.50;99.90;;;;;;5056946;28;20076;-75
2022/09/24 00:55:26;;;;;;;4.70;1.35;;;16.70;99.90;;;;;;5055409;28;20200;-75
2022/09/24 00:57:56;;;;;;;4.47;1.73;;;16.80;99.90;;;;;;5062472;28;20143;-75
2022/09/24 01:00:22;;;;;;;4.97;1.67;;;16.80;99.90;;;;;;5061994;28;20036;-75
2022/09/24 01:02:53;;;;;;;5.45;1.95;;;16.80;99.90;;;;;;5056262;28;20032;-75
2022/09/24 01:05:19;;;;;;;5.68;1.70;;;16.90;99.90;;;;;;5059815;28;20407;-75
2022/09/24 01:07:48;;;;;;;5.80;1.70;;;17.00;99.90;;;;;;5058488;28;20040;-75
2022/09/24 01:10:46;;;;;;;5.90;1.58;;;16.80;99.90;;;;;;5039992;28;20048;-75
2022/09/24 01:13:28;;;;;;;5.28;1.90;;;16.90;99.90;;;;;;5053726;28;20048;-75
2022/09/24 01:16:12;;;;;;;5.00;1.70;;;16.90;99.90;;;;;;5056491;28;20610;-75
2022/09/24 01:18:59;;;;;;;5.78;1.60;;;16.90;99.90;;;;;;5052760;28;20041;-75
2022/09/24 01:21:34;;;;;;;3.92;1.40;;;16.90;99.90;;;;;;5057709;28;20055;-75
2022/09/24 01:24:39;;;;;;;3.63;1.40;;;16.80;99.90;;;;;;5057868;28;20040;-76
2022/09/24 01:27:59;;;;;;;4.20;1.60;;;16.70;99.90;;;;;;5035587;28;20065;-75
2022/09/24 01:30:31;;;;;;;3.80;1.65;;;16.90;99.90;;;;;;4960479;28;20065;-75
2022/09/24 01:33:12;;;;;;;5.22;2.00;;;16.90;99.90;;;;;;5029328;28;20037;-75
2022/09/24 01:35:49;;;;;;;6.85;1.58;;;16.90;99.90;;;;;;5037924;28;20414;-76
2022/09/24 01:38:23;;;;;;;3.80;1.77;;;16.90;99.90;;;;;;5040108;28;20033;-75
2022/09/24 01:40:52;;;;;;;4.47;1.98;;;16.90;99.90;;;;;;5058151;28;20473;-75
2022/09/24 01:43:23;;;;;;;4.68;2.22;;;16.90;99.90;;;;;;5054000;28;20049;-75
2022/09/24 01:45:50;;;;;;;6.25;2.20;;;17.00;99.90;;;;;;5051264;28;20041;-75
2022/09/24 01:48:20;;;;;;;;;;;17.00;99.90;;;;;;5060716;28;20396;-75
2022/09/24 01:50:56;;;;;;;5.15;1.50;;;17.00;99.90;;;;;;5056325;28;19916;-75
2022/09/24 01:53:37;;;;;;;4.75;2.20;;;16.90;99.90;;;;;;5068852;28;25299;-75
2022/09/24 01:56:38;;;;;;;4.93;1.80;;;16.80;99.90;;;;;;5057558;28;20079;-75
2022/09/24 02:00:02;;;;;;;5.10;1.52;;;16.80;99.90;;;;;;5057961;28;20040;-75
2022/09/24 02:02:55;;;;;;;3.92;1.40;;;16.90;99.90;;;;;;5026757;28;20118;-75
2022/09/24 02:05:29;;;;;;;6.22;1.70;;;17.00;99.90;;;;;;5044221;28;20349;-75
2022/09/24 02:08:07;;;;;;;4.68;1.70;;;17.10;99.90;;;;;;5076719;28;20041;-74
2022/09/24 02:10:41;;;;;;;5.00;1.30;;;17.10;99.90;;;;;;5055818;28;20037;-75
2022/09/24 02:13:12;;;;;;;4.93;1.13;;;17.00;99.90;;;;;;5061783;28;20036;-75
2022/09/24 02:15:44;;;;;;;3.30;1.50;;;17.00;99.90;;;;;;5066557;28;20036;-75
2022/09/24 02:18:16;;;;;;;3.42;1.20;;;16.90;99.90;;;;;;5060312;28;20372;-75
2022/09/24 02:20:43;;;;;;;3.10;1.30;;;16.90;99.90;;;;;;5056524;28;20116;-76
2022/09/24 02:23:10;;;;;;;3.58;1.17;;;16.80;99.90;;;;;;5062758;28;20041;-76
2022/09/24 02:25:50;;;;;;;3.35;1.00;;;16.80;99.90;;;;;;5062676;28;20060;-75
2022/09/24 02:28:17;;;;;;;4.90;1.20;;;16.70;99.90;;;;;;5056348;28;20043;-74
2022/09/24 02:30:49;;;;;;;3.60;1.40;;;16.70;99.90;;;;;;5061510;28;20054;-74
2022/09/24 02:36:02;;;;;;;5.72;1.50;;;16.60;99.90;;;;;;5059664;28;20047;-75
2022/09/24 02:38:28;;;;;;;4.07;1.30;;;16.60;99.90;;;;;;5048236;28;20040;-74
2022/09/24 02:40:54;;;;;;;4.38;1.58;;;16.50;99.90;;;;;;5063127;28;20357;-74
2022/09/24 02:43:20;;;;;;;3.45;1.10;;;16.60;99.90;;;;;;5060571;28;20037;-75
2022/09/24 02:45:46;;;;;;;3.13;1.10;;;16.60;99.90;;;;;;5061533;28;20392;-74
2022/09/24 02:48:12;;;;;;;3.47;1.40;;;16.60;99.90;;;;;;5052554;28;20045;-75
2022/09/24 02:50:38;;;;;;;3.58;1.40;;;16.60;99.90;;;;;;5076582;28;20544;-74
2022/09/24 02:53:03;;;;;;;2.80;1.13;;;16.70;99.90;;;;;;5058720;28;20033;-75
2022/09/24 02:55:30;;;;;;;3.78;1.10;;;16.70;99.90;;;;;;5063099;28;20476;-74
2022/09/24 02:57:56;;;;;;;3.58;0.98;;;16.70;99.90;;;;;;5062667;28;20706;-75
2022/09/24 03:00:22;;;;;;;2.70;1.20;;;16.70;99.90;;;;;;5054403;28;20214;-75
2022/09/24 03:02:49;;;;;;;3.75;1.00;;;16.70;99.90;;;;;;5058439;28;20037;-75
2022/09/24 03:05:17;;;;;;;5.28;1.50;;;16.80;99.90;;;;;;5073001;28;20156;-75
2022/09/24 03:07:44;;;;;;;3.85;1.10;;;16.80;99.90;;;;;;5059342;28;20123;-75
2022/09/24 03:10:10;;;;;;;3.67;1.15;;;16.90;99.90;;;;;;5062789;28;20040;-75
2022/09/24 03:12:36;;;;;;;3.65;1.13;;;17.00;99.90;;;;;;5054503;28;20043;-75
2022/09/24 03:15:02;;;;;;;3.17;1.00;;;17.20;99.90;;;;;;5058302;28;20041;-75
2022/09/24 03:17:29;;;;;;;3.58;1.00;;;17.20;99.90;;;;;;5061460;28;20032;-74
2022/09/24 03:19:55;;;;;;;5.35;1.15;;;17.30;99.90;;;;;;5058447;28;20044;-75
2022/09/24 03:22:20;;;;;;;3.75;1.15;;;17.40;99.90;;;;;;5064056;28;20037;-76
2022/09/24 03:24:46;;;;;;;7.63;1.20;;;17.50;99.90;;;;;;5061803;28;20097;-76
2022/09/24 03:27:13;;;;;;;4.28;1.20;;;17.60;99.90;;;;;;5057521;28;20047;-74
2022/09/24 03:32:43;;;;;;;2.67;1.00;;;17.70;99.90;;;;;;5081123;28;20374;-75
2022/09/24 03:35:10;;;;;;;3.03;1.00;;;17.80;99.90;;;;;;5065073;28;20032;-74
2022/09/24 03:37:36;;;;;;;3.78;1.27;;;17.90;99.90;;;;;;5054378;28;20044;-75
2022/09/24 03:40:06;;;;;;;3.60;1.20;;;17.90;99.90;;;;;;5058285;28;20068;-74
2022/09/24 03:42:33;;;;;;;4.03;1.25;;;18.00;99.90;;;;;;5057733;28;20063;-75
2022/09/24 03:44:59;;;;;;;;;;;18.00;99.90;;;;;;5062399;28;20051;-75
2022/09/24 03:47:25;;;;;;;3.95;1.58;;;18.10;99.90;;;;;;5061126;28;19908;-75
2022/09/24 03:49:52;;;;;;;3.28;1.20;;;18.10;99.90;;;;;;5060893;28;20127;-75
2022/09/24 03:52:18;;;;;;;4.20;1.60;;;18.20;99.90;;;;;;5056076;28;20033;-75
2022/09/24 03:54:45;;;;;;;5.32;1.45;;;18.20;99.90;;;;;;5058166;28;20476;-75
2022/09/24 03:57:13;;;;;;;7.57;1.45;;;18.20;99.90;;;;;;5057776;28;20476;-75
2022/09/24 03:59:41;;;;;;;6.47;1.55;;;18.30;99.90;;;;;;5059622;28;20036;-75
2022/09/24 04:02:08;;;;;;;3.55;1.40;;;18.30;99.90;;;;;;5057617;28;20067;-75
2022/09/24 04:04:33;;;;;;;;;;;18.40;99.90;;;;;;5055954;28;20037;-75
2022/09/24 04:06:59;;;;;;;6.50;1.85;;;18.50;99.90;;;;;;5058530;28;19920;-75
2022/09/24 04:09:25;;;;;;;5.22;1.80;;;18.50;99.90;;;;;;5055817;28;20033;-75
2022/09/24 04:11:52;;;;;;;6.45;1.65;;;18.50;99.90;;;;;;5058855;28;20495;-75
2022/09/24 04:14:19;;;;;;;6.82;1.73;;;18.60;99.90;;;;;;5060838;28;20060;-75
2022/09/24 04:16:45;;;;;;;4.40;1.83;;;18.60;99.90;;;;;;5059454;28;20089;-74
2022/09/24 04:19:12;;;;;;;4.88;1.63;;;18.60;99.90;;;;;;5059042;28;20040;-75
2022/09/24 04:21:38;;;;;;;5.45;1.80;;;18.60;99.90;;;;;;5059490;28;20401;-75
2022/09/24 04:24:04;;;;;;;5.82;1.58;;;18.60;99.90;;;;;;5057257;28;20116;-74
2022/09/24 04:26:30;;;;;;;4.15;1.60;;;18.60;99.90;;;;;;5049623;28;20451;-75
2022/09/24 04:28:58;;;;;;;4.80;1.55;;;18.50;99.90;;;;;;5070542;28;20040;-74
2022/09/24 04:31:25;;;;;;;6.05;1.52;;;18.60;99.90;;;;;;5056571;28;20492;-74
2022/09/24 04:33:52;;;;;;;4.97;1.77;;;18.60;99.90;;;;;;5060895;28;20040;-74
2022/09/24 04:36:18;;;;;;;4.97;1.80;;;18.60;99.90;;;;;;5057134;28;20029;-75
2022/09/24 04:38:45;;;;;;;5.07;1.80;;;18.50;99.90;;;;;;5056995;28;20558;-75
2022/09/24 04:41:11;;;;;;;6.15;1.65;;;18.60;99.90;;;;;;5074901;28;20511;-75
2022/09/24 04:43:37;;;;;;;6.78;1.95;;;18.60;99.90;;;;;;5061158;28;20147;-74
2022/09/24 04:46:04;;;;;;;4.32;1.60;;;18.50;99.90;;;;;;5059062;28;20036;-74
2022/09/24 04:48:30;;;;;;;4.10;2.10;;;18.50;99.90;;;;;;5065164;28;20558;-74
2022/09/24 04:50:56;;;;;;;4.68;1.85;;;18.50;99.90;;;;;;5064015;28;20049;-75
2022/09/24 04:53:23;;;;;;;4.70;1.70;;;18.50;99.90;;;;;;5058108;28;20041;-75
2022/09/24 04:55:49;;;;;;;4.53;1.58;;;18.50;99.90;;;;;;5063120;28;20192;-74
2022/09/24 04:58:15;;;;;;;7.38;2.38;;;18.50;99.90;;;;;;5056789;28;20064;-75
2022/09/24 05:00:42;;;;;;;4.38;1.95;;;18.50;99.90;;;;;;5061017;28;20029;-75
2022/09/24 05:03:08;;;;;;;4.38;1.70;;;18.50;99.90;;;;;;5060272;28;20039;-75
2022/09/24 05:05:34;;;;;;;4.90;1.90;;;18.50;99.90;;;;;;5057494;28;20475;-75
2022/09/24 05:08:01;;;;;;;5.88;2.03;;;18.50;99.90;;;;;;5057640;28;20036;-74
2022/09/24 05:10:28;;;;;;;4.22;1.83;;;18.50;99.90;;;;;;5057457;28;20040;-74
2022/09/24 05:12:54;;;;;;;4.85;1.80;;;18.50;99.90;;;;;;5073420;28;20116;-74
2022/09/24 05:15:20;;;;;;;4.07;1.73;;;18.50;99.90;;;;;;5060374;28;20131;-74
2022/09/24 05:17:46;;;;;;;5.90;2.10;;;18.50;99.90;;;;;;5059674;28;20033;-74
2022/09/24 05:20:14;;;;;;;4.43;1.50;;;18.50;99.90;;;;;;5058603;28;20093;-75
2022/09/24 05:22:44;;;;;;;4.10;1.75;;;18.50;99.90;;;;;;5063674;28;20036;-74
2022/09/24 05:25:11;;;;;;;5.60;1.70;;;18.40;99.90;;;;;;5059895;28;20025;-74
2022/09/24 05:27:43;;;;;;;6.68;1.77;;;18.50;99.90;;;;;;5057377;28;20048;-75
2022/09/24 05:30:10;;;;;;;4.50;1.73;;;18.50;99.90;;;;;;5057071;28;20146;-74
2022/09/24 05:32:36;;;;;;;3.53;1.50;;;18.50;99.90;;;;;;5059138;28;20033;-75
2022/09/24 05:35:01;;;;;;;4.38;1.70;;;18.50;99.90;;;;;;5074957;28;20044;-74
2022/09/24 05:37:27;;;;;;;3.45;1.45;;;18.50;99.90;;;;;;5052231;28;20033;-75
2022/09/24 05:39:53;;;;;;;4.82;1.75;;;18.50;99.90;;;;;;5055855;28;20127;-75
2022/09/24 05:42:19;;;;;;;3.47;1.45;;;18.50;99.90;;;;;;5058081;28;20049;-75
2022/09/24 05:44:46;;;;;;;4.63;1.30;;;18.50;99.90;;;;;;5062444;28;20108;-75
2022/09/24 05:47:12;;;;;;;3.10;1.45;;;18.60;99.90;;;;;;5063188;28;20039;-75
2022/09/24 05:49:38;;;;;;;4.68;1.58;;;18.60;99.90;;;;;;5061183;28;20041;-75
2022/09/24 05:52:05;;;;;;;4.50;1.30;;;18.60;99.90;;;;;;5062433;28;20041;-75
2022/09/24 05:54:30;;;;;;;3.25;1.25;;;18.60;99.90;;;;;;5060141;28;20048;-75
2022/09/24 05:56:56;;;;;;;4.07;1.42;;;18.70;99.90;;;;;;5065486;28;20133;-75
2022/09/24 05:59:23;;;;;;;8.27;1.90;;;18.70;99.90;;;;;;5059531;28;20610;-74
2022/09/24 06:01:49;;;;;;;5.25;1.75;;;18.70;99.90;;;;;;5064400;28;20036;-75
2022/09/24 06:04:15;;;;;;;4.72;2.17;;;18.80;99.90;;;;;;5065112;28;20043;-74
2022/09/24 06:06:42;;;;;;;4.13;1.60;;;18.80;99.90;;;;;;5063604;28;20531;-74
2022/09/24 06:09:08;;;;;;;;;;;18.60;99.90;;;;;;5064696;28;20037;-75
2022/09/24 06:11:34;;;;;;;6.22;2.35;;;18.50;99.90;;;;;;5060821;28;20411;-74
2022/09/24 06:14:02;;;;;;;5.45;2.30;;;18.50;99.90;;;;;;5063515;28;20171;-75
2022/09/24 06:16:28;;;;;;;5.78;2.28;;;18.40;99.90;;;;;;5057250;28;20033;-75
2022/09/24 06:18:54;;;;;;;7.63;1.95;;;18.40;99.90;;;;;;5067118;28;20039;-76
2022/09/24 06:21:20;;;;;;;7.72;2.13;;;18.30;99.90;;;;;;5048013;28;20029;-75
2022/09/24 06:23:47;;;;;;;6.07;1.95;;;18.30;99.90;;;;;;5061083;28;20032;-76
2022/09/24 06:26:14;;;;;;;11.30;1.90;;;18.40;99.90;;;;;;5061796;28;20039;-75
2022/09/24 06:28:40;;;;;;;5.32;2.10;;;18.40;99.90;;;;;;5059670;28;20388;-75
2022/09/24 06:31:08;;;;;;;3.72;1.50;;;18.40;99.90;;;;;;5061419;28;20063;-75
2022/09/24 06:33:36;;;;;;;5.18;2.45;;;18.50;99.90;;;;;;5041779;28;20025;-75
2022/09/24 06:36:03;;;;;;;5.20;1.65;;;18.60;99.90;;;;;;5058166;28;20098;-76
2022/09/24 06:38:30;;;;;;;4.65;1.40;;;18.60;99.90;;;;;;5050276;28;20565;-74
2022/09/24 06:41:03;;;;;;;6.85;2.10;;;18.50;99.90;;;;;;5058355;28;20120;-77
2022/09/24 06:43:30;;;;;;;6.28;1.98;;;18.50;99.90;;;;;;5036751;28;20034;-75
2022/09/24 06:45:57;;;;;;;4.97;1.58;;;18.50;99.90;;;;;;5039751;28;20104;-75
2022/09/24 06:48:25;;;;;;;6.65;1.73;;;18.60;99.90;;;;;;5041992;28;20040;-75
2022/09/24 06:50:51;;;;;;;3.17;1.30;;;18.70;99.90;;;;;;5074249;28;20439;-77
2022/09/24 06:53:17;;;;;;;8.82;1.60;;;18.80;99.90;;;;;;5059513;28;20032;-75
2022/09/24 06:55:44;;;;;;;9.35;1.60;;;18.80;99.90;;;;;;5066732;28;20094;-75
2022/09/24 06:58:12;;;;;;;7.15;1.75;;;18.90;99.90;;;;;;5041955;28;20037;-75
2022/09/24 07:00:39;;;;;;;4.28;1.80;;;19.00;99.90;;;;;;5028116;28;20045;-74
2022/09/24 07:03:06;;;;;;;3.88;1.52;;;19.10;99.90;;;;;;5028252;28;20453;-75
2022/09/24 07:05:34;;;;;;;4.47;1.50;;;19.10;99.90;;;;;;5038032;28;20057;-76
2022/09/24 07:08:00;;;;;;;4.50;1.70;;;19.10;99.90;;;;;;5043439;28;20107;-76
2022/09/24 07:10:26;;;;;;;5.90;1.48;;;19.20;99.90;;;;;;5040310;28;20472;-75
2022/09/24 07:12:52;;;;;;;;;;;19.20;99.90;;;;;;5057785;28;20138;-74
2022/09/24 07:15:18;;;;;;;3.80;1.77;;;19.20;99.90;;;;;;5060771;28;20604;-75
2022/09/24 07:17:44;;;;;;;5.22;2.20;;;19.20;99.90;;;;;;5059045;28;20108;-75
2022/09/24 07:20:10;;;;;;;6.07;1.85;;;19.20;99.90;;;;;;5060567;28;20098;-74
2022/09/24 07:22:40;;;;;;;7.45;1.98;;;19.30;99.90;;;;;;5064193;28;20041;-75
2022/09/24 07:25:11;;;;;;;5.53;1.98;;;19.30;99.90;;;;;;5053836;28;20044;-74
2022/09/24 07:27:38;;;;;;;4.63;1.88;;;19.20;99.90;;;;;;5053335;28;20171;-75
2022/09/24 07:30:09;;;;;;;4.43;2.08;;;19.30;99.90;;;;;;5072129;28;20029;-76
2022/09/24 07:32:35;;;;;;;7.30;1.80;;;19.40;99.90;;;;;;5075889;28;20546;-74
2022/09/24 07:35:01;;;;;;;7.22;1.98;;;19.40;99.90;;;;;;5063918;28;20033;-75
2022/09/24 07:37:27;;;;;;;5.45;2.25;;;19.50;99.90;;;;;;5060193;28;20399;-75
2022/09/24 07:39:52;;;;;;;5.93;1.67;;;19.50;99.90;;;;;;5063901;28;20098;-77
2022/09/24 07:42:18;;;;;;;3.70;1.52;;;19.60;99.90;;;;;;5073425;28;20112;-75
2022/09/24 07:44:45;;;;;;;6.85;1.70;;;19.70;99.90;;;;;;5060962;28;20041;-75
2022/09/24 07:47:12;;;;;;;4.80;1.70;;;19.70;99.90;;;;;;5060240;28;20037;-76
2022/09/24 07:49:38;;;;;;;5.18;1.90;;;19.70;99.90;;;;;;5048560;28;20162;-75
2022/09/24 07:52:04;;;;;;;4.05;1.45;;;19.70;99.90;;;;;;5055962;28;20076;-76
2022/09/24 07:54:30;;;;;;;3.60;1.55;;;19.80;99.90;;;;;;5059152;28;20040;-75
2022/09/24 07:56:56;;;;;;;3.58;1.60;;;19.80;99.90;;;;;;5053204;28;20763;-75
2022/09/24 07:59:22;;;;;;;6.40;1.73;;;19.80;99.90;;;;;;5061627;28;20037;-75
2022/09/24 08:01:47;;;;;;;4.22;1.63;;;19.90;99.90;;;;;;5057158;28;20033;-74
2022/09/24 08:04:13;;;;;;;3.58;1.42;;;19.90;99.90;;;;;;5061486;28;20127;-75
2022/09/24 08:06:39;;;;;;;5.80;1.50;;;20.00;99.90;;;;;;5066012;28;20044;-76
2022/09/24 08:09:05;;;;;;;5.63;1.70;;;19.90;99.90;;;;;;5058870;28;20047;-75
2022/09/24 08:11:32;;;;;;;3.50;1.40;;;19.90;99.90;;;;;;5062135;28;20643;-76
2022/09/24 08:13:59;;;;;;;4.00;1.33;;;19.90;99.90;;;;;;5058898;28;20029;-75
2022/09/24 08:16:26;;;;;;;5.53;1.40;;;20.00;99.90;;;;;;5054873;28;20037;-74
2022/09/24 08:18:53;;;;;;;4.95;1.65;;;20.00;99.90;;;;;;5064965;28;20127;-75
2022/09/24 08:21:19;;;;;;;3.80;1.40;;;19.90;99.90;;;;;;5058521;28;20032;-75
2022/09/24 08:23:45;;;;;;;4.38;1.95;;;19.80;99.90;;;;;;5075104;28;20052;-75
2022/09/24 08:26:12;;;;;;;4.25;1.75;;;19.80;99.90;;;;;;5059276;28;20120;-75
2022/09/24 08:28:40;;;;;;;14.70;7.07;;;19.90;99.90;;;;;;5051821;28;20024;-76
2022/09/24 08:31:10;;;;;;;12.82;2.35;;;20.10;99.90;;;;;;5062223;28;20067;-76
2022/09/24 08:33:37;;;;;;;6.90;1.95;;;20.20;99.90;;;;;;5063680;28;20037;-76
2022/09/24 08:36:06;;;;;;;4.00;1.70;;;20.40;99.90;;;;;;5055840;28;20120;-75
2022/09/24 08:38:32;;;;;;;4.90;1.75;;;20.50;99.90;;;;;;5059095;28;20036;-76
2022/09/24 08:41:13;;;;;;;3.60;1.63;;;20.80;99.90;;;;;;5057783;28;20033;-75
2022/09/24 08:44:10;;;;;;;4.28;1.85;;;20.90;99.90;;;;;;5036322;28;20358;-76
2022/09/24 08:49:43;;;;;;;4.18;1.88;;;21.60;99.90;;;;;;5057860;28;20435;-76
2022/09/24 08:52:21;;;;;;;3.20;1.70;;;21.70;99.90;;;;;;5061903;28;20039;-76
2022/09/24 08:54:49;;;;;;;4.38;1.75;;;21.90;99.90;;;;;;5061291;28;20052;-76
2022/09/24 08:57:18;;;;;;;4.15;1.92;;;21.90;99.90;;;;;;5058862;28;20040;-76
2022/09/24 08:59:50;;;;;;;7.70;2.13;;;22.00;99.90;;;;;;5058042;28;20043;-76
2022/09/24 09:02:52;;;;;;;4.70;1.70;;;22.10;99.90;;;;;;5054766;27;20048;-76
2022/09/24 09:05:40;;;;;;;4.28;1.73;;;22.20;99.90;;;;;;5052389;28;20036;-76
2022/09/24 09:08:18;;;;;;;5.88;2.17;;;22.50;99.90;;;;;;5053262;28;20055;-76
2022/09/24 09:10:45;;;;;;;6.43;1.83;;;22.50;99.90;;;;;;5055959;28;20519;-76
2022/09/24 09:13:32;;;;;;;4.03;1.75;;;22.50;99.90;;;;;;5058087;28;20044;-76
2022/09/24 09:16:15;;;;;;;4.60;2.08;;;22.50;99.90;;;;;;5051857;28;20397;-76
2022/09/24 09:18:45;;;;;;;4.47;2.10;;;22.60;99.90;;;;;;5067890;28;20108;-77
2022/09/24 09:21:41;;;;;;;4.50;1.98;;;22.90;99.90;;;;;;5061293;28;20052;-76
2022/09/24 09:24:37;;;;;;;5.53;2.22;;;23.40;99.90;;;;;;5074645;28;20063;-76
2022/09/24 09:27:13;;;;;;;5.25;1.85;;;23.70;99.90;;;;;;5056941;28;20040;-76
2022/09/24 09:30:01;;;;;;;5.10;2.10;;;23.40;99.90;;;;;;5056029;28;20033;-75
2022/09/24 09:32:33;;;;;;;6.38;2.00;;;23.50;99.90;;;;;;5058680;28;20069;-76
2022/09/24 09:35:29;;;;;;;5.20;1.92;;;23.50;99.90;;;;;;5057098;28;20040;-76
2022/09/24 09:38:22;;;;;;;5.43;1.77;;;23.30;99.90;;;;;;5054230;28;20097;-75
2022/09/24 09:40:59;;;;;;;4.60;1.83;;;23.20;99.90;;;;;;5032679;28;20725;-75
2022/09/24 09:43:25;;;;;;;6.13;1.95;;;23.20;99.90;;;;;;5057466;28;20469;-74
2022/09/24 09:46:14;;;;;;;5.82;1.90;;;23.10;99.90;;;;;;5054092;28;20115;-76
2022/09/24 09:49:04;;;;;;;5.88;1.85;;;23.00;99.90;;;;;;5071569;28;20026;-73
2022/09/24 09:51:37;;;;;;;4.32;1.88;;;22.90;99.90;;;;;;5053433;28;20511;-73
2022/09/24 09:54:03;;;;;;;5.32;1.92;;;22.60;99.90;;;;;;5054261;28;20174;-73
2022/09/24 09:56:44;;;;;;;;;;;22.50;99.90;;;;;;5053164;28;20052;-73
2022/09/24 09:59:10;;;;;;;5.97;1.55;;;22.40;99.90;;;;;;5054971;28;20372;-73
2022/09/24 10:01:42;;;;;;;5.65;1.70;;;22.30;99.90;;;;;;5059103;28;20040;-73
2022/09/24 10:04:38;;;;;;;4.38;1.90;;;22.10;99.90;;;;;;5054721;28;20093;-73
2022/09/24 10:07:09;;;;;;;3.42;1.52;;;22.00;99.90;;;;;;5062820;28;20037;-72
2022/09/24 10:09:36;;;;;;;3.42;1.67;;;21.90;99.90;;;;;;5052143;28;20526;-73
2022/09/24 10:12:16;;;;;;;4.90;1.80;;;21.90;99.90;;;;;;5057435;28;20120;-73
2022/09/24 10:14:43;;;;;;;4.95;2.08;;;21.70;99.90;;;;;;5045865;28;20039;-73
2022/09/24 10:17:13;;;;;;;3.80;1.60;;;21.70;99.90;;;;;;5070232;28;20127;-74
2022/09/24 10:19:40;;;;;;;4.25;1.77;;;21.70;99.90;;;;;;5056404;28;20033;-73
2022/09/24 10:22:13;;;;;;;4.95;1.95;;;21.70;99.90;;;;;;5054788;28;20560;-72
2022/09/24 10:24:42;;;;;;;4.38;1.80;;;21.90;99.90;;;;;;5062039;28;20037;-73
2022/09/24 10:27:12;;;;;;;6.10;1.65;;;22.00;99.90;;;;;;5041610;28;20051;-72
2022/09/24 10:32:24;;;;;;;;;;;22.00;99.90;;;;;;5055913;28;20503;-74
2022/09/24 10:35:01;;;;;;;4.00;1.85;;;22.00;99.90;;;;;;5061114;28;20443;-73
2022/09/24 10:37:28;;;;;;;4.00;1.80;;;22.00;99.90;;;;;;5054304;28;20059;-74
2022/09/24 10:39:57;;;;;;;;;;;22.00;99.90;;;;;;5061151;28;20507;-73
2022/09/24 10:42:25;;;;;;;5.57;2.00;;;22.10;99.90;;;;;;5058831;28;19926;-72
2022/09/24 10:44:52;;;;;;;4.75;1.85;;;22.20;99.90;;;;;;5078519;28;20045;-74
2022/09/24 10:47:47;;;;;;;3.60;2.05;;;22.40;99.90;;;;;;5057130;28;20033;-74
2022/09/24 10:50:24;;;;;;;4.35;1.85;;;22.60;99.90;;;;;;5042273;28;20051;-73
2022/09/24 10:52:56;;;;;;;5.65;1.92;;;22.70;99.90;;;;;;5060604;28;20040;-73
2022/09/24 10:55:46;;;;;;;6.18;2.15;;;23.00;99.90;;;;;;5056663;28;20126;-75
2022/09/24 10:58:38;;;;;;;4.55;2.20;;;23.40;99.90;;;;;;5059545;28;20029;-75
2022/09/24 11:01:16;;;;;;;5.60;2.00;;;24.40;99.90;;;;;;5057836;28;20407;-74
2022/09/24 11:03:57;;;;;;;3.55;1.65;;;25.00;99.90;;;;;;5057294;28;20039;-75
2022/09/24 11:06:52;;;;;;;5.75;1.95;;;25.70;99.90;;;;;;5060756;28;20104;-74
2022/09/24 11:09:48;;;;;;;3.67;1.80;;;26.10;99.90;;;;;;5014718;28;20139;-73
2022/09/24 11:12:29;;;;;;;4.88;1.88;;;26.10;99.90;;;;;;5058603;28;20037;-71
2022/09/24 11:15:20;;;;;;;3.95;1.92;;;26.00;99.90;;;;;;5062865;28;20045;-72
2022/09/24 11:18:08;;;;;;;4.75;2.20;;;26.60;99.90;;;;;;5055091;28;20032;-72
2022/09/24 11:20:42;;;;;;;4.45;2.85;;;27.20;99.90;;;;;;5058068;28;20042;-73
2022/09/24 11:23:26;;;;;;;4.00;2.05;;;27.10;99.90;;;;;;5076576;28;20629;-71
2022/09/24 11:25:58;;;;;;;4.93;2.35;;;27.60;99.90;;;;;;5061172;28;20033;-72
2022/09/24 11:28:33;;;;;;;4.30;2.10;;;28.00;99.90;;;;;;5073018;28;20096;-72
2022/09/24 11:31:05;;;;;;;3.83;1.92;;;27.80;99.90;;;;;;5073560;28;20175;-70
2022/09/24 11:33:53;;;;;;;4.85;1.73;;;27.60;99.90;;;;;;5061031;28;20150;-71
2022/09/24 11:36:40;;;;;;;4.60;2.20;;;27.40;99.90;;;;;;5062274;28;20048;-72
2022/09/24 11:39:48;;;;;;;5.22;2.05;;;27.30;99.90;;;;;;5074670;28;20090;-71
2022/09/24 11:42:20;;;;;;;5.65;2.25;;;27.20;99.90;;;;;;5060996;28;20032;-71
2022/09/24 11:44:53;;;;;;;;;;;27.10;99.90;;;;;;5046676;28;20433;-72
2022/09/24 11:47:52;;;;;;;5.47;2.15;;;26.90;99.90;;;;;;5075302;28;19970;-71
2022/09/24 11:50:48;;;;;;;3.53;1.83;;;27.10;99.90;;;;;;5075887;28;20036;-70
2022/09/24 11:53:33;;;;;;;4.50;1.92;;;26.80;99.90;;;;;;5074609;28;20040;-71
2022/09/24 11:56:19;;;;;;;5.85;3.25;;;27.40;99.90;;;;;;5071322;28;20040;-71
2022/09/24 11:58:59;;;;;;;5.43;2.53;;;27.80;99.90;;;;;;5041148;28;20113;-72
2022/09/24 12:01:31;;;;;;;5.55;3.60;;;27.50;99.90;;;;;;5039300;28;20412;-72
2022/09/24 12:04:10;;;;;;;5.35;2.88;;;27.00;99.90;;;;;;5045816;28;20076;-71
2022/09/24 12:06:59;;;;;;;4.07;2.28;;;27.00;99.90;;;;;;5068713;28;20042;-72
2022/09/24 12:09:34;;;;;;;5.18;2.10;;;26.90;99.90;;;;;;5046164;28;20043;-71
2022/09/24 12:12:20;;;;;;;5.88;2.83;;;26.80;99.90;;;;;;5056455;28;20087;-73
2022/09/24 12:15:07;;;;;;;5.95;2.45;;;26.30;99.90;;;;;;5063289;28;20098;-71
2022/09/24 12:17:44;;;;;;;4.05;1.98;;;25.70;99.90;;;;;;5046827;28;20035;-71
2022/09/24 12:20:30;;;;;;;5.28;2.78;;;25.70;99.90;;;;;;5060607;28;20033;-72
2022/09/24 12:23:08;;;;;;;5.10;2.40;;;25.60;99.90;;;;;;5057505;28;20029;-70
2022/09/24 12:25:41;;;;;;;4.88;2.65;;;25.70;99.90;;;;;;5059619;28;20024;-72
2022/09/24 12:28:12;;;;;;;6.13;2.92;;;25.70;99.90;;;;;;5057177;28;20380;-72
2022/09/24 12:33:44;;;;;;;4.35;2.42;;;25.50;99.90;;;;;;5058683;28;20135;-71
2022/09/24 12:36:34;;;;;;;;;;;25.40;99.90;;;;;;5054310;28;20047;-72
2022/09/24 12:39:20;;;;;;;4.85;2.42;;;25.00;99.90;;;;;;5061531;28;20004;-72
2022/09/24 12:41:55;;;;;;;5.38;2.50;;;25.20;99.90;;;;;;5039082;28;20360;-72
2022/09/24 12:44:41;;;;;;;5.32;2.15;;;25.40;99.90;;;;;;5052742;28;20739;-70
2022/09/24 12:47:22;;;;;;;6.90;2.45;;;25.40;99.90;;;;;;5062473;28;20033;-73
2022/09/24 12:49:59;;;;;;;4.65;2.05;;;25.60;99.90;;;;;;5057611;28;20108;-72
2022/09/24 12:52:42;;;;;;;4.47;2.20;;;25.60;99.90;;;;;;5062642;28;20039;-71
2022/09/24 12:55:29;;;;;;;5.32;2.50;;;25.60;99.90;;;;;;5070953;28;20082;-71
2022/09/24 12:57:55;;;;;;;5.15;2.33;;;25.90;99.90;;;;;;5043740;28;20118;-71
2022/09/24 13:00:41;;;;;;;8.98;3.58;;;26.20;99.90;;;;;;5033978;28;20456;-73
2022/09/24 13:03:27;;;;;;;5.68;2.15;;;26.40;99.90;;;;;;5055776;28;20044;-72
2022/09/24 13:05:54;;;;;;;4.20;2.13;;;26.40;99.90;;;;;;5061065;28;20621;-72
2022/09/24 13:08:20;;;;;;;3.80;2.10;;;26.10;99.90;;;;;;5058349;28;20033;-72
2022/09/24 13:11:04;;;;;;;4.53;2.50;;;26.00;99.90;;;;;;5057372;28;20045;-71
2022/09/24 13:13:34;;;;;;;5.07;2.22;;;25.80;99.90;;;;;;5015323;28;20032;-72
2022/09/24 13:16:00;;;;;;;5.65;2.35;;;25.40;99.90;;;;;;5042317;28;20059;-72
2022/09/24 13:18:26;;;;;;;4.38;2.53;;;25.60;99.90;;;;;;5059792;28;20459;-71
2022/09/24 13:21:02;;;;;;;7.25;2.85;;;25.90;99.90;;;;;;5057303;28;20047;-72
2022/09/24 13:23:30;;;;;;;3.47;1.83;;;26.10;99.90;;;;;;5060408;28;20122;-70
2022/09/24 13:26:06;;;;;;;6.00;2.00;;;26.20;99.90;;;;;;5067573;28;20120;-72
2022/09/24 13:28:45;;;;;;;4.65;2.40;;;26.20;99.90;;;;;;5037736;28;20465;-73
2022/09/24 13:31:41;;;;;;;5.25;2.47;;;26.40;99.90;;;;;;5053255;28;20041;-72
2022/09/24 13:34:09;;;;;;;4.82;2.20;;;26.30;99.90;;;;;;5038704;28;20044;-72